sensor_id;sensor_type;location;lat;lon;timestamp;temperature;humidity
22035;DHT22;11181;51.002;4.356;2023-04-09T00:01:33;12.20;99.90
22035;DHT22;11181;51.002;4.356;2023-04-09T00:04:00;12.10;99.90
22035;DHT22;11181;51.002;4.356;2023-04-09T00:06:28;12.10;99.90
22035;DHT22;11181;51.002;4.356;2023-04-09T00:08:55;12.00;99.90
22035;DHT22;11181;51.002;4.356;2023-04-09T00:11:22;12.00;99.90
22035;DHT22;11181;51.002;4.356;2023-04-09T00:13:50;11.90;99.90
22035;DHT22;11181;51.002;4.356;2023-04-09T00:16:17;11.80;99.90
22035;DHT22;11181;51.002;4.356;2023-04-09T00:18:44;11.80;99.90
22035;DHT22;11181;51.002;4.356;2023-04-09T00:21:10;11.70;99.90
22035;DHT22;11181;51.002;4.356;2023-04-09T00:23:39;11.70;99.90
22035;DHT22;11181;51.002;4.356;2023-04-09T00:26:06;11.70;99.90
22035;DHT22;11181;51.002;4.356;2023-04-09T00:28:33;11.60;99.90
22035;DHT22;11181;51.002;4.356;2023-04-09T00:31:00;11.70;99.90
22035;DHT22;11181;51.002;4.356;2023-04-09T00:33:27;11.70;99.90
22035;DHT22;11181;51.002;4.356;2023-04-09T00:35:54;11.60;99.90
22035;DHT22;11181;51.002;4.356;2023-04-09T00:38:21;11.60;99.90
22035;DHT22;11181;51.002;4.356;2023-04-09T00:40:50;11.60;99.90
22035;DHT22;11181;51.002;4.356;2023-04-09T00:43:17;11.60;99.90
22035;DHT22;11181;51.002;4.356;2023-04-09T00:45:44;11.60;99.90
22035;DHT22;11181;51.002;4.356;2023-04-09T00:48:12;11.50;99.90
22035;DHT22;11181;51.002;4.356;2023-04-09T00:50:41;11.50;99.90
22035;DHT22;11181;51.002;4.356;2023-04-09T00:53:08;11.60;99.90
22035;DHT22;11181;51.002;4.356;2023-04-09T00:55:36;11.50;99.90
22035;DHT22;11181;51.002;4.356;2023-04-09T00:58:06;11.50;99.90
22035;DHT22;11181;51.002;4.356;2023-04-09T01:00:33;11.50;99.90
22035;DHT22;11181;51.002;4.356;2023-04-09T01:03:01;11.50;99.90
22035;DHT22;11181;51.002;4.356;2023-04-09T01:05:33;11.50;99.90
22035;DHT22;11181;51.002;4.356;2023-04-09T01:08:10;11.50;99.90
22035;DHT22;11181;51.002;4.356;2023-04-09T01:10:42;11.60;99.90
22035;DHT22;11181;51.002;4.356;2023-04-09T01:13:18;11.60;99.90
22035;DHT22;11181;51.002;4.356;2023-04-09T01:15:47;11.60;99.90
22035;DHT22;11181;51.002;4.356;2023-04-09T01:18:21;11.70;99.90
22035;DHT22;11181;51.002;4.356;2023-04-09T01:20:54;11.60;99.90
22035;DHT22;11181;51.002;4.356;2023-04-09T01:23:31;11.60;99.90
22035;DHT22;11181;51.002;4.356;2023-04-09T01:26:03;11.60;99.90
22035;DHT22;11181;51.002;4.356;2023-04-09T01:28:38;11.60;99.90
22035;DHT22;11181;51.002;4.356;2023-04-09T01:31:10;11.50;99.90
22035;DHT22;11181;51.002;4.356;2023-04-09T01:33:38;11.50;99.90
22035;DHT22;11181;51.002;4.356;2023-04-09T01:36:06;11.50;99.90
22035;DHT22;11181;51.002;4.356;2023-04-09T01:38:34;11.50;99.90
22035;DHT22;11181;51.002;4.356;2023-04-09T01:41:02;11.60;99.90
22035;DHT22;11181;51.002;4.356;2023-04-09T01:43:30;11.60;99.90
22035;DHT22;11181;51.002;4.356;2023-04-09T01:45:59;11.70;99.90
22035;DHT22;11181;51.002;4.356;2023-04-09T01:48:28;11.70;99.90
22035;DHT22;11181;51.002;4.356;2023-04-09T01:50:55;11.70;99.90
22035;DHT22;11181;51.002;4.356;2023-04-09T01:53:23;11.70;99.90
22035;DHT22;11181;51.002;4.356;2023-04-09T01:55:53;11.70;99.90
22035;DHT22;11181;51.002;4.356;2023-04-09T01:58:20;11.80;99.90
22035;DHT22;11181;51.002;4.356;2023-04-09T02:00:48;11.70;99.90
22035;DHT22;11181;51.002;4.356;2023-04-09T02:03:20;11.70;99.90
22035;DHT22;11181;51.002;4.356;2023-04-09T02:05:54;11.70;99.90
22035;DHT22;11181;51.002;4.356;2023-04-09T02:08:22;11.70;99.90
22035;DHT22;11181;51.002;4.356;2023-04-09T02:10:53;11.70;99.90
22035;DHT22;11181;51.002;4.356;2023-04-09T02:13:21;11.60;99.90
22035;DHT22;11181;51.002;4.356;2023-04-09T02:15:49;11.50;99.90
22035;DHT22;11181;51.002;4.356;2023-04-09T02:18:22;11.30;99.90
22035;DHT22;11181;51.002;4.356;2023-04-09T02:20:50;11.20;99.90
22035;DHT22;11181;51.002;4.356;2023-04-09T02:23:17;11.30;99.90
22035;DHT22;11181;51.002;4.356;2023-04-09T02:25:44;11.30;99.90
22035;DHT22;11181;51.002;4.356;2023-04-09T02:28:11;11.40;99.90
22035;DHT22;11181;51.002;4.356;2023-04-09T02:30:38;11.40;99.90
22035;DHT22;11181;51.002;4.356;2023-04-09T02:33:05;11.40;99.90
22035;DHT22;11181;51.002;4.356;2023-04-09T02:35:34;11.40;99.90
22035;DHT22;11181;51.002;4.356;2023-04-09T02:38:01;11.40;99.90
22035;DHT22;11181;51.002;4.356;2023-04-09T02:40:28;11.40;99.90
22035;DHT22;11181;51.002;4.356;2023-04-09T02:42:55;11.40;99.90
22035;DHT22;11181;51.002;4.356;2023-04-09T02:45:22;11.40;99.90
22035;DHT22;11181;51.002;4.356;2023-04-09T02:47:49;11.50;99.90
22035;DHT22;11181;51.002;4.356;2023-04-09T02:50:16;11.50;99.90
22035;DHT22;11181;51.002;4.356;2023-04-09T02:52:46;11.50;99.90
22035;DHT22;11181;51.002;4.356;2023-04-09T02:55:13;11.40;99.90
22035;DHT22;11181;51.002;4.356;2023-04-09T02:57:40;11.40;99.90
22035;DHT22;11181;51.002;4.356;2023-04-09T03:00:08;11.30;99.90
22035;DHT22;11181;51.002;4.356;2023-04-09T03:02:35;11.20;99.90
22035;DHT22;11181;51.002;4.356;2023-04-09T03:05:02;11.20;99.90
22035;DHT22;11181;51.002;4.356;2023-04-09T03:07:29;11.10;99.90
22035;DHT22;11181;51.002;4.356;2023-04-09T03:09:58;11.00;99.90
22035;DHT22;11181;51.002;4.356;2023-04-09T03:12:25;10.90;99.90
22035;DHT22;11181;51.002;4.356;2023-04-09T03:14:52;10.90;99.90
22035;DHT22;11181;51.002;4.356;2023-04-09T03:17:19;10.90;99.90
22035;DHT22;11181;51.002;4.356;2023-04-09T03:19:45;10.80;99.90
22035;DHT22;11181;51.002;4.356;2023-04-09T03:22:12;10.80;99.90
22035;DHT22;11181;51.002;4.356;2023-04-09T03:24:39;10.70;99.90
22035;DHT22;11181;51.002;4.356;2023-04-09T03:27:08;10.70;99.90
22035;DHT22;11181;51.002;4.356;2023-04-09T03:29:35;10.70;99.90
22035;DHT22;11181;51.002;4.356;2023-04-09T03:32:01;10.70;99.90
22035;DHT22;11181;51.002;4.356;2023-04-09T03:34:28;10.80;99.90
22035;DHT22;11181;51.002;4.356;2023-04-09T03:36:55;10.80;99.90
22035;DHT22;11181;51.002;4.356;2023-04-09T03:39:22;10.80;99.90
22035;DHT22;11181;51.002;4.356;2023-04-09T03:41:49;10.80;99.90
22035;DHT22;11181;51.002;4.356;2023-04-09T03:44:17;10.70;99.90
22035;DHT22;11181;51.002;4.356;2023-04-09T03:46:44;10.70;99.90
22035;DHT22;11181;51.002;4.356;2023-04-09T03:49:11;10.70;99.90
22035;DHT22;11181;51.002;4.356;2023-04-09T03:51:38;10.70;99.90
22035;DHT22;11181;51.002;4.356;2023-04-09T03:54:05;10.70;99.90
22035;DHT22;11181;51.002;4.356;2023-04-09T03:56:32;10.70;99.90
22035;DHT22;11181;51.002;4.356;2023-04-09T03:58:59;10.70;99.90
22035;DHT22;11181;51.002;4.356;2023-04-09T04:01:27;10.60;99.90
22035;DHT22;11181;51.002;4.356;2023-04-09T04:03:54;10.60;99.90
22035;DHT22;11181;51.002;4.356;2023-04-09T04:06:21;10.60;99.90
22035;DHT22;11181;51.002;4.356;2023-04-09T04:08:47;10.60;99.90
22035;DHT22;11181;51.002;4.356;2023-04-09T04:11:15;10.60;99.90
22035;DHT22;11181;51.002;4.356;2023-04-09T04:13:42;10.60;99.90
22035;DHT22;11181;51.002;4.356;2023-04-09T04:16:09;10.60;99.90
22035;DHT22;11181;51.002;4.356;2023-04-09T04:18:37;10.60;99.90
22035;DHT22;11181;51.002;4.356;2023-04-09T04:21:04;10.50;99.90
22035;DHT22;11181;51.002;4.356;2023-04-09T04:23:33;10.50;99.90
22035;DHT22;11181;51.002;4.356;2023-04-09T04:25:59;10.50;99.90
22035;DHT22;11181;51.002;4.356;2023-04-09T04:28:26;10.50;99.90
22035;DHT22;11181;51.002;4.356;2023-04-09T04:30:53;10.40;99.90
22035;DHT22;11181;51.002;4.356;2023-04-09T04:33:20;10.40;99.90
22035;DHT22;11181;51.002;4.356;2023-04-09T04:35:48;10.30;99.90
22035;DHT22;11181;51.002;4.356;2023-04-09T04:38:15;10.20;99.90
22035;DHT22;11181;51.002;4.356;2023-04-09T04:40:42;10.20;99.90
22035;DHT22;11181;51.002;4.356;2023-04-09T04:43:09;10.20;99.90
22035;DHT22;11181;51.002;4.356;2023-04-09T04:45:36;10.10;99.90
22035;DHT22;11181;51.002;4.356;2023-04-09T04:48:03;10.20;99.90
22035;DHT22;11181;51.002;4.356;2023-04-09T04:50:30;10.10;99.90
22035;DHT22;11181;51.002;4.356;2023-04-09T04:52:58;10.00;99.90
22035;DHT22;11181;51.002;4.356;2023-04-09T04:55:25;10.00;99.90
22035;DHT22;11181;51.002;4.356;2023-04-09T04:57:52;10.00;99.90
22035;DHT22;11181;51.002;4.356;2023-04-09T05:00:19;10.00;99.90
22035;DHT22;11181;51.002;4.356;2023-04-09T05:02:46;10.00;99.90
22035;DHT22;11181;51.002;4.356;2023-04-09T05:05:13;10.00;99.90
22035;DHT22;11181;51.002;4.356;2023-04-09T05:07:40;10.00;99.90
22035;DHT22;11181;51.002;4.356;2023-04-09T05:10:09;10.00;99.90
22035;DHT22;11181;51.002;4.356;2023-04-09T05:12:36;10.00;99.90
22035;DHT22;11181;51.002;4.356;2023-04-09T05:15:04;10.00;99.90
22035;DHT22;11181;51.002;4.356;2023-04-09T05:17:31;10.00;99.90
22035;DHT22;11181;51.002;4.356;2023-04-09T05:19:58;9.90;99.90
22035;DHT22;11181;51.002;4.356;2023-04-09T05:22:25;9.90;99.90
22035;DHT22;11181;51.002;4.356;2023-04-09T05:24:52;9.90;99.90
22035;DHT22;11181;51.002;4.356;2023-04-09T05:27:20;9.90;99.90
22035;DHT22;11181;51.002;4.356;2023-04-09T05:29:48;9.90;99.90
22035;DHT22;11181;51.002;4.356;2023-04-09T05:32:15;9.90;99.90
22035;DHT22;11181;51.002;4.356;2023-04-09T05:34:42;10.00;99.90
22035;DHT22;11181;51.002;4.356;2023-04-09T05:37:09;10.00;99.90
22035;DHT22;11181;51.002;4.356;2023-04-09T05:39:36;10.20;99.90
22035;DHT22;11181;51.002;4.356;2023-04-09T05:42:03;10.10;99.90
22035;DHT22;11181;51.002;4.356;2023-04-09T05:44:31;10.10;99.90
22035;DHT22;11181;51.002;4.356;2023-04-09T05:46:58;10.10;99.90
22035;DHT22;11181;51.002;4.356;2023-04-09T05:49:25;10.10;99.90
22035;DHT22;11181;51.002;4.356;2023-04-09T05:51:52;10.20;99.90
22035;DHT22;11181;51.002;4.356;2023-04-09T05:54:19;10.20;99.90
22035;DHT22;11181;51.002;4.356;2023-04-09T05:56:46;10.20;99.90
22035;DHT22;11181;51.002;4.356;2023-04-09T05:59:13;10.30;99.90
22035;DHT22;11181;51.002;4.356;2023-04-09T06:01:42;10.40;99.90
22035;DHT22;11181;51.002;4.356;2023-04-09T06:04:08;10.40;99.90
22035;DHT22;11181;51.002;4.356;2023-04-09T06:06:37;10.60;99.90
22035;DHT22;11181;51.002;4.356;2023-04-09T06:09:04;10.60;99.90
22035;DHT22;11181;51.002;4.356;2023-04-09T06:11:31;10.70;99.90
22035;DHT22;11181;51.002;4.356;2023-04-09T06:13:58;10.80;99.90
22035;DHT22;11181;51.002;4.356;2023-04-09T06:16:25;10.90;99.90
22035;DHT22;11181;51.002;4.356;2023-04-09T06:18:53;11.00;99.90
22035;DHT22;11181;51.002;4.356;2023-04-09T06:21:21;11.00;99.90
22035;DHT22;11181;51.002;4.356;2023-04-09T06:23:48;11.10;99.90
22035;DHT22;11181;51.002;4.356;2023-04-09T06:26:17;11.20;99.90
22035;DHT22;11181;51.002;4.356;2023-04-09T06:28:44;11.30;99.90
22035;DHT22;11181;51.002;4.356;2023-04-09T06:31:12;11.30;99.90
22035;DHT22;11181;51.002;4.356;2023-04-09T06:33:38;11.40;99.90
22035;DHT22;11181;51.002;4.356;2023-04-09T06:36:07;11.50;99.90
22035;DHT22;11181;51.002;4.356;2023-04-09T06:38:34;11.70;99.90
22035;DHT22;11181;51.002;4.356;2023-04-09T06:41:01;11.80;99.90
22035;DHT22;11181;51.002;4.356;2023-04-09T06:43:28;12.00;99.90
22035;DHT22;11181;51.002;4.356;2023-04-09T06:45:55;12.20;99.90
22035;DHT22;11181;51.002;4.356;2023-04-09T06:48:22;12.40;99.90
22035;DHT22;11181;51.002;4.356;2023-04-09T06:50:49;12.60;99.90
22035;DHT22;11181;51.002;4.356;2023-04-09T06:53:17;12.70;99.90
22035;DHT22;11181;51.002;4.356;2023-04-09T06:55:44;12.80;99.90
22035;DHT22;11181;51.002;4.356;2023-04-09T06:58:11;12.90;99.90
22035;DHT22;11181;51.002;4.356;2023-04-09T07:00:38;13.00;99.90
22035;DHT22;11181;51.002;4.356;2023-04-09T07:03:05;12.80;99.90
22035;DHT22;11181;51.002;4.356;2023-04-09T07:05:33;12.50;99.90
22035;DHT22;11181;51.002;4.356;2023-04-09T07:08:01;12.50;99.90
22035;DHT22;11181;51.002;4.356;2023-04-09T07:10:30;12.50;99.90
22035;DHT22;11181;51.002;4.356;2023-04-09T07:12:56;12.40;99.90
22035;DHT22;11181;51.002;4.356;2023-04-09T07:15:23;12.30;99.90
22035;DHT22;11181;51.002;4.356;2023-04-09T07:17:50;12.20;99.90
22035;DHT22;11181;51.002;4.356;2023-04-09T07:20:17;12.10;99.90
22035;DHT22;11181;51.002;4.356;2023-04-09T07:22:44;12.20;99.90
22035;DHT22;11181;51.002;4.356;2023-04-09T07:25:11;12.30;99.90
22035;DHT22;11181;51.002;4.356;2023-04-09T07:27:40;12.50;99.90
22035;DHT22;11181;51.002;4.356;2023-04-09T07:30:07;12.70;99.90
22035;DHT22;11181;51.002;4.356;2023-04-09T07:32:35;12.90;99.90
22035;DHT22;11181;51.002;4.356;2023-04-09T07:35:03;12.90;99.90
22035;DHT22;11181;51.002;4.356;2023-04-09T07:37:30;12.70;99.90
22035;DHT22;11181;51.002;4.356;2023-04-09T07:39:57;12.90;99.90
22035;DHT22;11181;51.002;4.356;2023-04-09T07:42:24;12.90;99.90
22035;DHT22;11181;51.002;4.356;2023-04-09T07:44:53;12.80;99.90
22035;DHT22;11181;51.002;4.356;2023-04-09T07:47:21;13.00;99.90
22035;DHT22;11181;51.002;4.356;2023-04-09T07:49:48;13.30;99.90
22035;DHT22;11181;51.002;4.356;2023-04-09T07:52:15;13.50;99.90
22035;DHT22;11181;51.002;4.356;2023-04-09T07:54:44;13.60;99.90
22035;DHT22;11181;51.002;4.356;2023-04-09T07:57:11;13.70;99.90
22035;DHT22;11181;51.002;4.356;2023-04-09T07:59:37;13.70;99.90
22035;DHT22;11181;51.002;4.356;2023-04-09T08:02:06;14.00;99.90
22035;DHT22;11181;51.002;4.356;2023-04-09T08:04:33;14.20;99.90
22035;DHT22;11181;51.002;4.356;2023-04-09T08:07:00;14.40;99.90
22035;DHT22;11181;51.002;4.356;2023-04-09T08:09:27;14.30;99.90
22035;DHT22;11181;51.002;4.356;2023-04-09T08:11:54;14.20;99.90
22035;DHT22;11181;51.002;4.356;2023-04-09T08:14:21;14.10;99.90
22035;DHT22;11181;51.002;4.356;2023-04-09T08:16:49;14.30;99.90
22035;DHT22;11181;51.002;4.356;2023-04-09T08:19:17;14.60;99.90
22035;DHT22;11181;51.002;4.356;2023-04-09T08:21:44;14.70;99.90
22035;DHT22;11181;51.002;4.356;2023-04-09T08:24:13;14.90;99.90
22035;DHT22;11181;51.002;4.356;2023-04-09T08:26:41;15.30;99.90
22035;DHT22;11181;51.002;4.356;2023-04-09T08:29:09;15.70;99.90
22035;DHT22;11181;51.002;4.356;2023-04-09T08:31:36;15.90;99.90
22035;DHT22;11181;51.002;4.356;2023-04-09T08:34:03;16.10;99.90
22035;DHT22;11181;51.002;4.356;2023-04-09T08:36:32;16.20;99.90
22035;DHT22;11181;51.002;4.356;2023-04-09T08:38:59;16.20;99.90
22035;DHT22;11181;51.002;4.356;2023-04-09T08:41:27;16.50;99.90
22035;DHT22;11181;51.002;4.356;2023-04-09T08:43:56;16.70;99.90
22035;DHT22;11181;51.002;4.356;2023-04-09T08:46:23;16.80;99.90
22035;DHT22;11181;51.002;4.356;2023-04-09T08:48:51;17.00;99.90
22035;DHT22;11181;51.002;4.356;2023-04-09T08:51:19;17.20;99.90
22035;DHT22;11181;51.002;4.356;2023-04-09T08:53:48;17.40;99.90
22035;DHT22;11181;51.002;4.356;2023-04-09T08:56:17;17.50;99.90
22035;DHT22;11181;51.002;4.356;2023-04-09T08:58:46;17.40;99.90
22035;DHT22;11181;51.002;4.356;2023-04-09T09:01:20;17.60;99.90
22035;DHT22;11181;51.002;4.356;2023-04-09T09:03:54;18.00;99.90
22035;DHT22;11181;51.002;4.356;2023-04-09T09:06:22;18.10;99.90
22035;DHT22;11181;51.002;4.356;2023-04-09T09:09:03;17.80;99.90
22035;DHT22;11181;51.002;4.356;2023-04-09T09:11:30;17.90;99.90
22035;DHT22;11181;51.002;4.356;2023-04-09T09:13:58;18.20;99.90
22035;DHT22;11181;51.002;4.356;2023-04-09T09:16:26;18.60;99.90
22035;DHT22;11181;51.002;4.356;2023-04-09T09:18:53;18.90;99.90
22035;DHT22;11181;51.002;4.356;2023-04-09T09:21:22;19.20;99.90
22035;DHT22;11181;51.002;4.356;2023-04-09T09:23:48;19.50;99.90
22035;DHT22;11181;51.002;4.356;2023-04-09T09:26:19;19.70;99.90
22035;DHT22;11181;51.002;4.356;2023-04-09T09:28:48;20.00;99.90
22035;DHT22;11181;51.002;4.356;2023-04-09T09:31:16;20.20;99.90
22035;DHT22;11181;51.002;4.356;2023-04-09T09:33:44;20.40;99.90
22035;DHT22;11181;51.002;4.356;2023-04-09T09:36:12;20.40;99.90
22035;DHT22;11181;51.002;4.356;2023-04-09T09:38:53;20.50;99.90
22035;DHT22;11181;51.002;4.356;2023-04-09T09:41:22;20.70;99.90
22035;DHT22;11181;51.002;4.356;2023-04-09T09:43:50;20.90;99.90
22035;DHT22;11181;51.002;4.356;2023-04-09T09:46:18;20.70;99.90
22035;DHT22;11181;51.002;4.356;2023-04-09T09:48:46;20.70;99.90
22035;DHT22;11181;51.002;4.356;2023-04-09T09:51:14;20.70;99.90
22035;DHT22;11181;51.002;4.356;2023-04-09T09:53:43;20.80;99.90
22035;DHT22;11181;51.002;4.356;2023-04-09T09:56:14;21.10;99.90
22035;DHT22;11181;51.002;4.356;2023-04-09T09:58:48;20.90;99.90
22035;DHT22;11181;51.002;4.356;2023-04-09T10:01:17;21.20;99.90
22035;DHT22;11181;51.002;4.356;2023-04-09T10:03:45;21.50;99.90
22035;DHT22;11181;51.002;4.356;2023-04-09T10:06:13;21.90;99.90
22035;DHT22;11181;51.002;4.356;2023-04-09T10:08:41;21.90;99.90
22035;DHT22;11181;51.002;4.356;2023-04-09T10:11:08;22.00;99.90
22035;DHT22;11181;51.002;4.356;2023-04-09T10:13:38;21.90;99.90
22035;DHT22;11181;51.002;4.356;2023-04-09T10:16:08;22.20;99.90
22035;DHT22;11181;51.002;4.356;2023-04-09T10:18:35;22.50;99.90
22035;DHT22;11181;51.002;4.356;2023-04-09T10:21:08;22.50;99.90
22035;DHT22;11181;51.002;4.356;2023-04-09T10:23:39;22.50;99.90
22035;DHT22;11181;51.002;4.356;2023-04-09T10:26:07;22.80;99.90
22035;DHT22;11181;51.002;4.356;2023-04-09T10:28:36;22.90;99.90
22035;DHT22;11181;51.002;4.356;2023-04-09T10:31:04;23.00;99.90
22035;DHT22;11181;51.002;4.356;2023-04-09T10:33:35;23.20;99.90
22035;DHT22;11181;51.002;4.356;2023-04-09T10:36:05;23.50;99.90
22035;DHT22;11181;51.002;4.356;2023-04-09T10:38:36;23.60;99.90
22035;DHT22;11181;51.002;4.356;2023-04-09T10:41:13;23.70;99.90
22035;DHT22;11181;51.002;4.356;2023-04-09T10:43:41;23.40;99.90
22035;DHT22;11181;51.002;4.356;2023-04-09T10:46:26;22.70;99.90
22035;DHT22;11181;51.002;4.356;2023-04-09T10:49:16;22.70;99.90
22035;DHT22;11181;51.002;4.356;2023-04-09T10:51:47;23.10;99.90
22035;DHT22;11181;51.002;4.356;2023-04-09T10:54:35;23.50;99.90
22035;DHT22;11181;51.002;4.356;2023-04-09T10:57:17;23.90;99.90
22035;DHT22;11181;51.002;4.356;2023-04-09T10:59:45;24.20;99.90
22035;DHT22;11181;51.002;4.356;2023-04-09T11:05:31;24.30;99.90
22035;DHT22;11181;51.002;4.356;2023-04-09T11:08:10;24.40;99.90
22035;DHT22;11181;51.002;4.356;2023-04-09T11:10:37;24.50;99.90
22035;DHT22;11181;51.002;4.356;2023-04-09T11:13:05;24.70;99.90
22035;DHT22;11181;51.002;4.356;2023-04-09T11:15:34;24.70;99.90
22035;DHT22;11181;51.002;4.356;2023-04-09T11:18:02;24.30;99.90
22035;DHT22;11181;51.002;4.356;2023-04-09T11:20:33;24.20;99.90
22035;DHT22;11181;51.002;4.356;2023-04-09T11:23:00;24.30;99.90
22035;DHT22;11181;51.002;4.356;2023-04-09T11:25:29;24.40;99.90
22035;DHT22;11181;51.002;4.356;2023-04-09T11:27:56;24.20;99.90
22035;DHT22;11181;51.002;4.356;2023-04-09T11:30:23;24.30;99.90
22035;DHT22;11181;51.002;4.356;2023-04-09T11:32:51;24.40;99.90
22035;DHT22;11181;51.002;4.356;2023-04-09T11:35:20;24.20;99.90
22035;DHT22;11181;51.002;4.356;2023-04-09T11:37:49;24.40;99.90
22035;DHT22;11181;51.002;4.356;2023-04-09T11:40:17;24.30;99.90
22035;DHT22;11181;51.002;4.356;2023-04-09T11:42:46;24.60;99.90
22035;DHT22;11181;51.002;4.356;2023-04-09T11:45:14;24.70;99.90
22035;DHT22;11181;51.002;4.356;2023-04-09T11:47:43;24.80;99.90
22035;DHT22;11181;51.002;4.356;2023-04-09T11:50:12;24.70;99.90
22035;DHT22;11181;51.002;4.356;2023-04-09T11:52:40;24.80;99.90
22035;DHT22;11181;51.002;4.356;2023-04-09T11:55:09;25.00;99.90
22035;DHT22;11181;51.002;4.356;2023-04-09T11:57:40;25.00;99.80
22035;DHT22;11181;51.002;4.356;2023-04-09T12:00:09;24.70;99.90
22035;DHT22;11181;51.002;4.356;2023-04-09T12:02:39;24.60;99.90
22035;DHT22;11181;51.002;4.356;2023-04-09T12:05:08;24.70;99.90
22035;DHT22;11181;51.002;4.356;2023-04-09T12:07:36;25.10;99.90
22035;DHT22;11181;51.002;4.356;2023-04-09T12:10:04;25.50;99.90
22035;DHT22;11181;51.002;4.356;2023-04-09T12:12:40;25.70;99.80
22035;DHT22;11181;51.002;4.356;2023-04-09T12:15:18;25.70;99.30
22035;DHT22;11181;51.002;4.356;2023-04-09T12:17:47;25.90;99.60
22035;DHT22;11181;51.002;4.356;2023-04-09T12:20:29;25.90;98.20
22035;DHT22;11181;51.002;4.356;2023-04-09T12:22:57;25.90;98.60
22035;DHT22;11181;51.002;4.356;2023-04-09T12:25:24;26.00;99.10
22035;DHT22;11181;51.002;4.356;2023-04-09T12:27:53;26.20;99.50
22035;DHT22;11181;51.002;4.356;2023-04-09T12:30:20;26.30;98.70
22035;DHT22;11181;51.002;4.356;2023-04-09T12:32:47;26.10;97.40
22035;DHT22;11181;51.002;4.356;2023-04-09T12:35:14;25.90;97.80
22035;DHT22;11181;51.002;4.356;2023-04-09T12:37:41;26.10;97.20
22035;DHT22;11181;51.002;4.356;2023-04-09T12:40:09;26.20;96.50
22035;DHT22;11181;51.002;4.356;2023-04-09T12:42:38;26.10;96.80
22035;DHT22;11181;51.002;4.356;2023-04-09T12:45:08;26.20;96.60
22035;DHT22;11181;51.002;4.356;2023-04-09T12:47:36;26.00;95.80
22035;DHT22;11181;51.002;4.356;2023-04-09T12:50:05;25.80;97.10
22035;DHT22;11181;51.002;4.356;2023-04-09T12:52:32;25.80;97.90
22035;DHT22;11181;51.002;4.356;2023-04-09T12:55:00;26.10;97.90
22035;DHT22;11181;51.002;4.356;2023-04-09T12:57:27;26.40;97.50
22035;DHT22;11181;51.002;4.356;2023-04-09T12:59:54;26.40;97.70
22035;DHT22;11181;51.002;4.356;2023-04-09T13:02:23;26.50;98.00
22035;DHT22;11181;51.002;4.356;2023-04-09T13:04:50;26.70;96.10
22035;DHT22;11181;51.002;4.356;2023-04-09T13:07:17;27.00;96.10
22035;DHT22;11181;51.002;4.356;2023-04-09T13:09:45;27.10;95.30
22035;DHT22;11181;51.002;4.356;2023-04-09T13:12:13;27.20;96.00
22035;DHT22;11181;51.002;4.356;2023-04-09T13:14:41;27.40;95.50
22035;DHT22;11181;51.002;4.356;2023-04-09T13:17:08;27.30;93.60
22035;DHT22;11181;51.002;4.356;2023-04-09T13:19:36;27.20;94.50
22035;DHT22;11181;51.002;4.356;2023-04-09T13:22:03;27.20;93.60
22035;DHT22;11181;51.002;4.356;2023-04-09T13:24:32;27.20;93.30
22035;DHT22;11181;51.002;4.356;2023-04-09T13:27:00;27.00;93.20
22035;DHT22;11181;51.002;4.356;2023-04-09T13:29:27;27.00;92.90
22035;DHT22;11181;51.002;4.356;2023-04-09T13:31:54;26.90;92.60
22035;DHT22;11181;51.002;4.356;2023-04-09T13:34:22;27.00;93.40
22035;DHT22;11181;51.002;4.356;2023-04-09T13:36:50;27.10;93.30
22035;DHT22;11181;51.002;4.356;2023-04-09T13:39:17;27.20;93.80
22035;DHT22;11181;51.002;4.356;2023-04-09T13:41:44;27.30;93.50
22035;DHT22;11181;51.002;4.356;2023-04-09T13:44:11;27.00;93.70
22035;DHT22;11181;51.002;4.356;2023-04-09T13:46:38;26.70;94.60
22035;DHT22;11181;51.002;4.356;2023-04-09T13:49:05;26.40;94.40
22035;DHT22;11181;51.002;4.356;2023-04-09T13:51:32;26.40;94.40
22035;DHT22;11181;51.002;4.356;2023-04-09T13:54:00;26.40;93.60
22035;DHT22;11181;51.002;4.356;2023-04-09T13:56:28;26.30;93.70
22035;DHT22;11181;51.002;4.356;2023-04-09T13:58:55;26.10;94.10
22035;DHT22;11181;51.002;4.356;2023-04-09T14:01:22;26.10;94.10
22035;DHT22;11181;51.002;4.356;2023-04-09T14:03:51;26.20;94.50
22035;DHT22;11181;51.002;4.356;2023-04-09T14:06:18;26.30;93.80
22035;DHT22;11181;51.002;4.356;2023-04-09T14:08:45;26.30;94.40
22035;DHT22;11181;51.002;4.356;2023-04-09T14:11:14;26.50;93.90
22035;DHT22;11181;51.002;4.356;2023-04-09T14:13:41;26.60;94.20
22035;DHT22;11181;51.002;4.356;2023-04-09T14:16:08;26.60;93.90
22035;DHT22;11181;51.002;4.356;2023-04-09T14:18:35;26.40;93.10
22035;DHT22;11181;51.002;4.356;2023-04-09T14:21:04;26.10;93.70
22035;DHT22;11181;51.002;4.356;2023-04-09T14:23:31;25.90;94.10
22035;DHT22;11181;51.002;4.356;2023-04-09T14:25:59;25.80;94.70
22035;DHT22;11181;51.002;4.356;2023-04-09T14:28:27;25.70;94.40
22035;DHT22;11181;51.002;4.356;2023-04-09T14:30:54;25.60;93.50
22035;DHT22;11181;51.002;4.356;2023-04-09T14:33:21;25.70;93.90
22035;DHT22;11181;51.002;4.356;2023-04-09T14:35:48;25.90;93.40
22035;DHT22;11181;51.002;4.356;2023-04-09T14:38:15;26.00;94.00
22035;DHT22;11181;51.002;4.356;2023-04-09T14:40:43;26.10;93.60
22035;DHT22;11181;51.002;4.356;2023-04-09T14:43:10;26.00;92.70
22035;DHT22;11181;51.002;4.356;2023-04-09T14:45:39;26.20;92.50
22035;DHT22;11181;51.002;4.356;2023-04-09T14:48:06;26.30;93.70
22035;DHT22;11181;51.002;4.356;2023-04-09T14:50:33;26.40;92.90
22035;DHT22;11181;51.002;4.356;2023-04-09T14:53:01;26.30;92.20
22035;DHT22;11181;51.002;4.356;2023-04-09T14:55:28;26.10;92.30
22035;DHT22;11181;51.002;4.356;2023-04-09T14:57:55;26.20;91.90
22035;DHT22;11181;51.002;4.356;2023-04-09T15:00:22;26.20;91.90
22035;DHT22;11181;51.002;4.356;2023-04-09T15:02:50;26.30;91.60
22035;DHT22;11181;51.002;4.356;2023-04-09T15:05:17;26.40;91.30
22035;DHT22;11181;51.002;4.356;2023-04-09T15:07:44;26.00;90.90
22035;DHT22;11181;51.002;4.356;2023-04-09T15:10:11;25.60;91.20
22035;DHT22;11181;51.002;4.356;2023-04-09T15:12:38;25.00;91.70
22035;DHT22;11181;51.002;4.356;2023-04-09T15:15:06;24.50;91.70
22035;DHT22;11181;51.002;4.356;2023-04-09T15:17:33;24.50;92.60
22035;DHT22;11181;51.002;4.356;2023-04-09T15:20:02;24.30;92.80
22035;DHT22;11181;51.002;4.356;2023-04-09T15:22:29;24.10;92.40
22035;DHT22;11181;51.002;4.356;2023-04-09T15:24:56;23.80;92.90
22035;DHT22;11181;51.002;4.356;2023-04-09T15:27:23;23.80;93.60
22035;DHT22;11181;51.002;4.356;2023-04-09T15:29:50;23.70;93.80
22035;DHT22;11181;51.002;4.356;2023-04-09T15:32:17;23.70;94.10
22035;DHT22;11181;51.002;4.356;2023-04-09T15:34:44;23.70;93.50
22035;DHT22;11181;51.002;4.356;2023-04-09T15:37:12;23.60;93.20
22035;DHT22;11181;51.002;4.356;2023-04-09T15:39:39;23.50;93.20